createdAt,value
2018-01-23T00:00:35.357Z,96.73
2018-01-23T00:01:45.499Z,96.83
2018-01-23T00:02:55.711Z,96.73
2018-01-23T00:04:05.918Z,96.73
2018-01-23T00:05:16.096Z,96.83
2018-01-23T00:06:26.502Z,96.83
2018-01-23T00:07:36.705Z,96.64
2018-01-23T00:08:46.971Z,96.73
2018-01-23T00:09:57.232Z,96.64
2018-01-23T00:11:07.372Z,96.73
2018-01-23T00:12:17.507Z,96.78
2018-01-23T00:13:27.789Z,96.92
2018-01-23T00:14:37.956Z,96.92
2018-01-23T00:15:48.132Z,96.55
2018-01-23T00:16:58.329Z,96.83
2018-01-23T00:18:08.267Z,97.02
2018-01-23T00:19:18.418Z,97.12
2018-01-23T00:20:28.575Z,96.73
2018-01-23T00:21:38.760Z,96.73
2018-01-23T00:22:48.902Z,96.73
2018-01-23T00:23:59.017Z,96.83
2018-01-23T00:25:08.873Z,96.83
2018-01-23T00:26:18.976Z,96.83
2018-01-23T00:27:29.130Z,96.73
2018-01-23T00:28:39.266Z,96.73
2018-01-23T00:29:49.379Z,96.08
2018-01-23T00:30:59.554Z,97.02
2018-01-23T00:32:09.719Z,96.83
2018-01-23T00:33:19.824Z,96.83
2018-01-23T00:34:29.949Z,96.36
2018-01-23T00:35:39.748Z,95.98
2018-01-23T00:36:49.871Z,95.88
2018-01-23T00:37:59.993Z,96.17
2018-01-23T00:39:10.235Z,96.17
2018-01-23T00:40:20.434Z,95.98
2018-01-23T00:41:30.607Z,96.08
2018-01-23T00:42:40.836Z,96.83
2018-01-23T00:43:50.966Z,96.73
2018-01-23T00:45:01.115Z,96.73
2018-01-23T00:46:11.250Z,96.73
2018-01-23T00:47:21.386Z,96.73
2018-01-23T00:48:31.534Z,96.73
2018-01-23T00:49:41.738Z,96.92
2018-01-23T00:50:51.956Z,96.55
2018-01-23T00:52:02.112Z,96.83
2018-01-23T00:53:12.247Z,96.17
2018-01-23T00:54:22.494Z,96.17
2018-01-23T00:55:32.365Z,96.08
2018-01-23T00:56:42.514Z,96.17
2018-01-23T00:57:52.725Z,95.88
2018-01-23T00:59:02.897Z,96.26
2018-01-23T01:00:12.767Z,95.88
2018-01-23T01:01:22.985Z,96.26
2018-01-23T01:02:33.218Z,96.17
2018-01-23T01:03:43.399Z,96.17
2018-01-23T01:04:53.522Z,95.98
2018-01-23T01:06:03.635Z,96.17
2018-01-23T01:07:13.830Z,96.36
2018-01-23T01:08:23.986Z,97.02
2018-01-23T01:09:34.123Z,96.92
2018-01-23T01:10:44.264Z,96.73
2018-01-23T01:11:54.432Z,96.92
2018-01-23T01:13:04.554Z,96.83
2018-01-23T01:14:14.760Z,96.73
2018-01-23T01:15:24.678Z,96.41
2018-01-23T01:16:34.918Z,96.69
2018-01-23T01:17:45.134Z,96.88
2018-01-23T01:18:55.400Z,97.07
2018-01-23T01:20:05.586Z,96.64
2018-01-23T01:21:15.680Z,96.88
2018-01-23T01:22:25.878Z,96.83
2018-01-23T01:23:35.999Z,96.83
2018-01-23T01:24:46.114Z,96.92
2018-01-23T01:25:56.158Z,96.83
2018-01-23T01:27:06.298Z,96.92
2018-01-23T01:28:16.407Z,96.88
2018-01-23T01:29:26.554Z,96.83
2018-01-23T01:30:36.675Z,96.92
2018-01-23T01:31:46.854Z,96.83
2018-01-23T01:32:57.034Z,96.83
2018-01-23T01:34:07.294Z,96.83
2018-01-23T01:35:17.407Z,97.02
2018-01-23T01:36:27.611Z,96.83
2018-01-23T01:37:38.045Z,96.92
2018-01-23T01:38:48.179Z,97.21
2018-01-23T01:39:58.306Z,97.12
2018-01-23T01:41:08.329Z,97.02
2018-01-23T01:42:18.446Z,97.12
2018-01-23T01:43:28.610Z,97.21
2018-01-23T01:44:38.468Z,96.64
2018-01-23T01:45:48.261Z,96.64
2018-01-23T01:46:58.021Z,97.12
2018-01-23T01:48:08.138Z,96.64
2018-01-23T01:49:18.245Z,96.92
2018-01-23T01:50:28.353Z,96.83
2018-01-23T01:51:38.549Z,97.02
2018-01-23T01:52:48.704Z,96.64
2018-01-23T01:53:58.811Z,96.73
2018-01-23T01:55:08.558Z,96.92
2018-01-23T01:56:18.661Z,97.5
2018-01-23T01:57:28.521Z,97.5
2018-01-23T01:58:38.644Z,97.59
2018-01-23T01:59:48.770Z,97.21
2018-01-23T02:00:58.938Z,96.83
2018-01-23T02:02:09.095Z,97.02
2018-01-23T02:03:19.201Z,97.31
2018-01-23T02:04:29.306Z,97.5
2018-01-23T02:05:39.427Z,96.92
2018-01-23T02:06:50.256Z,97.4
2018-01-23T02:08:00.395Z,97.21
2018-01-23T02:09:10.498Z,97.31
2018-01-23T02:10:20.644Z,97.31
2018-01-23T02:11:30.833Z,97.12
2018-01-23T02:12:40.993Z,97.12
2018-01-23T02:13:51.174Z,97.21
2018-01-23T02:15:01.270Z,97.31
2018-01-23T02:16:11.413Z,97.78
2018-01-23T02:17:21.612Z,97.59
2018-01-23T02:18:31.488Z,97.21
2018-01-23T02:19:41.694Z,97.12
2018-01-23T02:20:51.589Z,97.69
2018-01-23T02:22:01.693Z,97.78
2018-01-23T02:23:11.840Z,97.73
2018-01-23T02:24:21.942Z,97.83
2018-01-23T02:25:31.843Z,97.4
2018-01-23T02:26:42.024Z,97.5
2018-01-23T02:27:52.126Z,97.5
2018-01-23T02:29:02.307Z,97.5
2018-01-23T02:30:12.527Z,97.45
2018-01-23T02:31:22.397Z,97.54
2018-01-23T02:32:32.518Z,98.3
2018-01-23T02:33:42.722Z,98.3
2018-01-23T02:34:52.949Z,98.3
2018-01-23T02:36:03.129Z,98.3
2018-01-23T02:37:13.295Z,97.45
2018-01-23T02:38:23.442Z,97.54
2018-01-23T02:39:33.597Z,98.21
2018-01-23T02:40:43.728Z,97.92
2018-01-23T02:41:54.794Z,98.02
2018-01-23T02:43:04.620Z,98.3
2018-01-23T02:44:14.728Z,98.16
2018-01-23T02:45:24.952Z,98.07
2018-01-23T02:46:35.201Z,98.16
2018-01-23T02:47:45.375Z,98.16
2018-01-23T02:48:55.709Z,98.3
2018-01-23T02:50:05.841Z,98.07
2018-01-23T02:51:16.054Z,98.25
2018-01-23T02:52:26.180Z,98.35
2018-01-23T02:53:36.541Z,98.25
2018-01-23T02:54:46.404Z,98.25
2018-01-23T02:55:56.528Z,97.59
2018-01-23T02:57:06.636Z,97.5
2018-01-23T02:58:16.817Z,97.4
2018-01-23T02:59:27.062Z,97.31
2018-01-23T03:00:37.200Z,97.4
2018-01-23T03:01:47.323Z,97.78
2018-01-23T03:02:57.473Z,97.78
2018-01-23T03:04:07.592Z,97.21
2018-01-23T03:05:17.820Z,97.69
2018-01-23T03:06:27.924Z,97.59
2018-01-23T03:07:38.083Z,97.4
2018-01-23T03:08:47.947Z,97.4
2018-01-23T03:09:58.056Z,97.31
2018-01-23T03:11:08.231Z,97.21
2018-01-23T03:12:18.324Z,97.59
2018-01-23T03:13:28.471Z,97.5
2018-01-23T03:14:38.392Z,97.31
2018-01-23T03:15:48.547Z,97.5
2018-01-23T03:16:58.691Z,97.59
2018-01-23T03:18:08.830Z,97.5
2018-01-23T03:19:18.994Z,97.31
2018-01-23T03:20:29.193Z,97.59
2018-01-23T03:21:39.330Z,97.5
2018-01-23T03:22:49.489Z,96.92
2018-01-23T03:23:59.607Z,96.64
2018-01-23T03:25:09.702Z,96.92
2018-01-23T03:26:19.604Z,96.92
2018-01-23T03:27:29.743Z,97.21
2018-01-23T03:28:39.862Z,97.12
2018-01-23T03:29:49.978Z,96.83
2018-01-23T03:31:00.107Z,97.12
2018-01-23T03:32:10.518Z,97.12
2018-01-23T03:33:20.642Z,96.92
2018-01-23T03:34:30.849Z,96.92
2018-01-23T03:35:41.002Z,96.92
2018-01-23T03:36:51.180Z,97.02
2018-01-23T03:38:01.317Z,96.92
2018-01-23T03:39:11.512Z,96.92
2018-01-23T03:40:21.673Z,96.83
2018-01-23T03:41:31.769Z,97.12
2018-01-23T03:42:41.927Z,96.73
2018-01-23T03:43:52.045Z,97.02
2018-01-23T03:45:02.338Z,96.64
2018-01-23T03:46:12.511Z,96.92
2018-01-23T03:47:22.672Z,96.64
2018-01-23T03:48:32.644Z,96.92
2018-01-23T03:49:42.519Z,96.55
2018-01-23T03:50:52.644Z,96.55
2018-01-23T03:52:02.755Z,96.73
2018-01-23T03:53:12.946Z,96.73
2018-01-23T03:54:23.253Z,96.55
2018-01-23T03:55:33.510Z,96.92
2018-01-23T03:56:43.694Z,96.73
2018-01-23T03:57:53.910Z,96.64
2018-01-23T03:59:04.031Z,96.26
2018-01-23T04:00:14.178Z,96.26
2018-01-23T04:01:24.444Z,95.88
2018-01-23T04:02:34.708Z,96.17
2018-01-23T04:03:44.846Z,96.26
2018-01-23T04:04:54.815Z,96.36
2018-01-23T04:06:04.935Z,97.02
2018-01-23T04:07:15.315Z,96.08
2018-01-23T04:08:25.434Z,96.36
2018-01-23T04:09:35.611Z,96.36
2018-01-23T04:10:45.782Z,96.08
2018-01-23T04:11:55.947Z,96.17
2018-01-23T04:13:06.077Z,97.02
2018-01-23T04:14:15.945Z,96.83
2018-01-23T04:15:26.185Z,96.73
2018-01-23T04:16:36.391Z,96.83
2018-01-23T04:17:46.581Z,96.92
2018-01-23T04:18:56.719Z,97.02
2018-01-23T04:20:06.344Z,96.64
2018-01-23T04:21:16.444Z,96.73
2018-01-23T04:22:26.619Z,96.92
2018-01-23T04:23:36.784Z,96.83
2018-01-23T04:24:47.229Z,96.83
2018-01-23T04:25:57.332Z,96.83
2018-01-23T04:27:07.457Z,96.17
2018-01-23T04:28:17.718Z,97.02
2018-01-23T04:29:27.855Z,96.64
2018-01-23T04:30:38.077Z,96.92
2018-01-23T04:31:48.286Z,96.36
2018-01-23T04:32:58.456Z,97.02
2018-01-23T04:34:08.693Z,96.92
2018-01-23T04:35:18.827Z,96.73
2018-01-23T04:36:29.266Z,96.83
2018-01-23T04:37:39.652Z,96.73
2018-01-23T04:38:49.820Z,96.73
2018-01-23T04:39:59.948Z,96.73
2018-01-23T04:41:10.150Z,96.45
2018-01-23T04:42:20.344Z,96.26
2018-01-23T04:43:31.514Z,96.64
2018-01-23T04:44:41.791Z,96.45
2018-01-23T04:45:52.044Z,97.12
2018-01-23T04:47:02.183Z,96.73
2018-01-23T04:48:12.319Z,97.02
2018-01-23T04:49:22.563Z,96.73
2018-01-23T04:50:32.781Z,96.83
2018-01-23T04:51:42.987Z,96.92
2018-01-23T04:52:53.199Z,96.92
2018-01-23T04:54:03.313Z,96.73
2018-01-23T04:55:13.430Z,97.5
2018-01-23T04:56:23.549Z,97.31
2018-01-23T04:57:33.426Z,97.4
2018-01-23T04:58:43.630Z,97.5
2018-01-23T04:59:53.784Z,97.31
2018-01-23T05:01:03.900Z,97.4
2018-01-23T05:02:14.092Z,97.02
2018-01-23T05:03:25.212Z,97.31
2018-01-23T05:04:35.333Z,97.5
2018-01-23T05:05:45.432Z,97.4
2018-01-23T05:06:55.576Z,97.4
2018-01-23T05:08:05.803Z,97.4
2018-01-23T05:09:15.916Z,97.69
2018-01-23T05:10:26.072Z,97.59
2018-01-23T05:11:36.316Z,97.59
2018-01-23T05:12:46.613Z,97.31
2018-01-23T05:13:56.767Z,97.78
2018-01-23T05:15:07.025Z,97.69
2018-01-23T05:16:17.154Z,97.12
2018-01-23T05:17:27.384Z,97.5
2018-01-23T05:18:37.491Z,97.5
2018-01-23T05:19:47.655Z,97.78
2018-01-23T05:20:57.778Z,97.4
2018-01-23T05:22:07.909Z,97.4
2018-01-23T05:23:18.158Z,97.21
2018-01-23T05:24:28.311Z,97.69
2018-01-23T05:25:38.523Z,98.25
2018-01-23T05:26:48.460Z,98.35
2018-01-23T05:27:58.569Z,98.07
2018-01-23T05:29:08.722Z,97.97
2018-01-23T05:30:18.960Z,98.35
2018-01-23T05:31:29.202Z,98.44
2018-01-23T05:32:39.357Z,98.44
2018-01-23T05:33:49.485Z,98.35
2018-01-23T05:34:59.611Z,98.44
2018-01-23T05:36:09.721Z,98.16
2018-01-23T05:37:19.855Z,98.25
2018-01-23T05:38:30.102Z,98.35
2018-01-23T05:39:40.271Z,98.63
2018-01-23T05:40:50.537Z,97.88
2018-01-23T05:42:00.646Z,97.97
2018-01-23T05:43:10.782Z,97.97
2018-01-23T05:44:20.908Z,98.25
2018-01-23T05:45:31.100Z,98.73
2018-01-23T05:46:41.214Z,98.92
2018-01-23T05:47:51.333Z,98.92
2018-01-23T05:49:01.198Z,98.35
2018-01-23T05:50:11.314Z,98.92
2018-01-23T05:51:21.482Z,98.16
2018-01-23T05:52:31.628Z,97.88
2018-01-23T05:53:41.952Z,98.16
2018-01-23T05:54:51.779Z,98.16
2018-01-23T05:56:01.901Z,98.44
2018-01-23T05:57:12.001Z,98.54
2018-01-23T05:58:22.224Z,98.25
2018-01-23T05:59:32.135Z,98.44
2018-01-23T06:00:42.298Z,98.25
2018-01-23T06:01:52.494Z,98.92
2018-01-23T06:03:02.650Z,98.78
2018-01-23T06:04:12.888Z,98.16
2018-01-23T06:05:22.789Z,98.16
2018-01-23T06:06:33.040Z,98.21
2018-01-23T06:07:42.892Z,98.21
2018-01-23T06:08:52.987Z,98.02
2018-01-23T06:10:03.112Z,98.4
2018-01-23T06:11:13.249Z,98.4
2018-01-23T06:12:24.502Z,98.4
2018-01-23T06:13:34.675Z,98.4
2018-01-23T06:14:44.826Z,98.4
2018-01-23T06:15:54.982Z,98.44
2018-01-23T06:17:06.296Z,98.4
2018-01-23T06:18:16.427Z,98.35
2018-01-23T06:19:26.650Z,98.3
2018-01-23T06:20:36.815Z,98.3
2018-01-23T06:21:46.772Z,98.35
2018-01-23T06:22:56.927Z,97.97
2018-01-23T06:24:07.203Z,97.97
2018-01-23T06:25:17.431Z,98.16
2018-01-23T06:26:27.539Z,98.16
2018-01-23T06:27:37.766Z,97.97
2018-01-23T06:28:47.884Z,97.97
2018-01-23T06:29:57.994Z,98.35
2018-01-23T06:31:08.133Z,98.07
2018-01-23T06:32:18.351Z,97.78
2018-01-23T06:33:28.559Z,97.88
2018-01-23T06:34:38.672Z,97.97
2018-01-23T06:35:48.856Z,98.35
2018-01-23T06:36:58.961Z,98.44
2018-01-23T06:38:09.071Z,98.07
2018-01-23T06:39:19.189Z,98.35
2018-01-23T06:40:29.346Z,98.16
2018-01-23T06:41:39.574Z,98.21
2018-01-23T06:42:49.439Z,98.82
2018-01-23T06:43:59.690Z,98.68
2018-01-23T06:45:09.827Z,98.68
2018-01-23T06:46:20.029Z,98.68
2018-01-23T06:47:30.257Z,98.87
2018-01-23T06:48:40.448Z,98.87
2018-01-23T06:49:50.572Z,98.87
2018-01-23T06:51:00.761Z,98.68
2018-01-23T06:52:10.887Z,98.97
2018-01-23T06:53:20.772Z,98.97
2018-01-23T06:54:31.045Z,98.21
2018-01-23T06:55:41.219Z,98.21
2018-01-23T06:56:51.453Z,98.49
2018-01-23T06:58:01.197Z,98.4
2018-01-23T06:59:11.400Z,98.49
2018-01-23T07:00:21.560Z,98.49
2018-01-23T07:01:31.676Z,98.49
2018-01-23T07:02:41.561Z,98.21
2018-01-23T07:03:51.697Z,98.11
2018-01-23T07:05:01.814Z,99.06
2018-01-23T07:06:11.921Z,98.97
2018-01-23T07:07:21.801Z,98.87
2018-01-23T07:08:31.922Z,98.97
2018-01-23T07:09:42.067Z,98.97
2018-01-23T07:10:51.971Z,98.02
2018-01-23T07:12:03.076Z,98.11
2018-01-23T07:13:13.213Z,98.49
2018-01-23T07:14:23.370Z,98.3
2018-01-23T07:15:33.496Z,98.3
2018-01-23T07:16:43.772Z,98.21
2018-01-23T07:17:53.633Z,98.4
2018-01-23T07:19:03.711Z,98.3
2018-01-23T07:20:13.922Z,98.4
2018-01-23T07:21:24.041Z,98.4
2018-01-23T07:22:34.164Z,98.4
2018-01-23T07:23:44.322Z,98.11
2018-01-23T07:24:54.464Z,98.11
2018-01-23T07:26:04.614Z,98.21
2018-01-23T07:27:14.798Z,98.11
2018-01-23T07:28:24.923Z,98.11
2018-01-23T07:29:35.155Z,98.4
2018-01-23T07:30:45.276Z,98.4
2018-01-23T07:31:55.448Z,98.3
2018-01-23T07:33:05.610Z,98.21
2018-01-23T07:34:15.950Z,98.02
2018-01-23T07:35:25.880Z,98.3
2018-01-23T07:36:36.087Z,98.3
2018-01-23T07:37:46.252Z,98.3
2018-01-23T07:38:57.440Z,98.21
2018-01-23T07:40:07.341Z,98.49
2018-01-23T07:41:17.462Z,98.97
2018-01-23T07:42:27.641Z,98.73
2018-01-23T07:43:37.856Z,98.87
2018-01-23T07:44:48.034Z,98.87
2018-01-23T07:45:58.189Z,98.3
2018-01-23T07:47:09.297Z,98.45
2018-01-23T07:48:19.414Z,98.73
2018-01-23T07:49:29.608Z,98.35
2018-01-23T07:50:39.738Z,98.35
2018-01-23T07:51:49.855Z,98.73
2018-01-23T07:52:59.962Z,98.54
2018-01-23T07:54:10.076Z,98.92
2018-01-23T07:55:20.213Z,98.64
2018-01-23T07:56:30.060Z,98.92
2018-01-23T07:57:40.271Z,99.21
2018-01-23T07:58:50.409Z,99.3
2018-01-23T08:00:00.532Z,99.11
2018-01-23T08:01:10.432Z,99.21
2018-01-23T08:02:20.323Z,99.3
2018-01-23T08:03:30.527Z,99.02
2018-01-23T08:04:40.677Z,99.11
2018-01-23T08:05:50.803Z,98.73
2018-01-23T08:07:00.919Z,99.49
2018-01-23T08:08:11.111Z,99.87
2018-01-23T08:09:21.258Z,99.11
2018-01-23T08:10:31.505Z,98.92
2018-01-23T08:11:41.329Z,99.11
2018-01-23T08:12:51.489Z,98.92
2018-01-23T08:14:01.607Z,99.26
2018-01-23T08:15:11.747Z,99.26
2018-01-23T08:16:21.883Z,99.35
2018-01-23T08:17:32.031Z,99.35
2018-01-23T08:18:42.190Z,99.26
2018-01-23T08:19:52.307Z,98.69
2018-01-23T08:21:02.456Z,98.79
2018-01-23T08:22:12.602Z,98.88
2018-01-23T08:23:22.777Z,98.79
2018-01-23T08:24:32.893Z,98.69
2018-01-23T08:25:43.009Z,98.55
2018-01-23T08:26:53.133Z,98.26
2018-01-23T08:28:03.294Z,98.45
2018-01-23T08:29:13.677Z,98.26
2018-01-23T08:30:23.895Z,98.55
2018-01-23T08:31:34.108Z,98.26
2018-01-23T08:32:44.255Z,98.26
2018-01-23T08:33:54.095Z,98.55
2018-01-23T08:35:04.224Z,98.36
2018-01-23T08:36:14.327Z,98.64
2018-01-23T08:37:24.496Z,98.5
2018-01-23T08:38:34.615Z,98.17
2018-01-23T08:39:44.785Z,98.07
2018-01-23T08:40:54.935Z,98.31
2018-01-23T08:42:05.114Z,98.12
2018-01-23T08:43:15.224Z,98.31
2018-01-23T08:44:25.480Z,98.12
2018-01-23T08:45:35.709Z,98.12
2018-01-23T08:46:45.918Z,98.4
2018-01-23T08:47:56.105Z,98.02
2018-01-23T08:49:05.988Z,98.02
2018-01-23T08:50:16.170Z,98.31
2018-01-23T08:51:26.439Z,98.31
2018-01-23T08:52:36.559Z,98.31
2018-01-23T08:53:46.402Z,98.31
2018-01-23T08:54:56.638Z,98.4
2018-01-23T08:56:06.887Z,97.64
2018-01-23T08:57:17.093Z,97.55
2018-01-23T08:58:27.327Z,98.31
2018-01-23T08:59:37.501Z,97.64
2018-01-23T09:00:47.673Z,98.4
2018-01-23T09:01:58.046Z,97.64
2018-01-23T09:03:08.204Z,97.64
2018-01-23T09:04:18.068Z,97.55
2018-01-23T09:05:28.183Z,98.21
2018-01-23T09:06:38.330Z,98.17
2018-01-23T09:07:48.473Z,97.6
2018-01-23T09:08:58.644Z,97.5
2018-01-23T09:10:08.747Z,97.5
2018-01-23T09:11:18.877Z,97.88
2018-01-23T09:12:29.045Z,97.78
2018-01-23T09:13:39.182Z,97.64
2018-01-23T09:14:49.312Z,97.69
2018-01-23T09:15:58.967Z,97.12
2018-01-23T09:17:09.101Z,97.78
2018-01-23T09:18:19.259Z,97.78
2018-01-23T09:19:29.377Z,98.17
2018-01-23T09:20:39.320Z,97.97
2018-01-23T09:21:49.454Z,98.17
2018-01-23T09:22:59.837Z,97.5
2018-01-23T09:24:09.993Z,97.6
2018-01-23T09:25:20.118Z,97.6
2018-01-23T09:26:30.246Z,97.6
2018-01-23T09:27:40.401Z,97.5
2018-01-23T09:28:50.587Z,97.31
2018-01-23T09:30:00.761Z,97.41
2018-01-23T09:31:10.976Z,97.55
2018-01-23T09:32:21.243Z,97.55
2018-01-23T09:33:32.423Z,97.93
2018-01-23T09:34:42.636Z,97.55
2018-01-23T09:35:52.817Z,97.45
2018-01-23T09:37:03.175Z,97.55
2018-01-23T09:38:13.362Z,96.89
2018-01-23T09:39:23.572Z,97.17
2018-01-23T09:40:33.726Z,96.84
2018-01-23T09:41:43.894Z,96.46
2018-01-23T09:42:54.005Z,96.17
2018-01-23T09:44:04.428Z,95.51
2018-01-23T09:45:14.544Z,95.56
2018-01-23T09:46:24.676Z,94.84
2018-01-23T09:47:34.829Z,94.46
2018-01-23T09:48:44.967Z,93.6
2018-01-23T09:49:55.123Z,93.22
2018-01-23T09:51:05.303Z,93.03
2018-01-23T09:52:15.484Z,93.08
2018-01-23T09:53:25.623Z,93.27
2018-01-23T09:54:35.870Z,92.41
2018-01-23T09:55:46.216Z,91.65
2018-01-23T09:56:57.388Z,90.6
2018-01-23T09:58:07.658Z,89.98
2018-01-23T09:59:17.815Z,89.69
2018-01-23T10:00:28.033Z,89.26
2018-01-23T10:01:38.292Z,88.73
2018-01-23T10:02:48.510Z,88.07
2018-01-23T10:03:58.793Z,87.49
2018-01-23T10:05:08.998Z,87.45
2018-01-23T10:06:19.206Z,87.83
2018-01-23T10:07:29.436Z,87.16
2018-01-23T10:08:39.573Z,86.93
2018-01-23T10:09:49.808Z,85.21
2018-01-23T10:11:00.034Z,84.83
2018-01-23T10:12:10.294Z,84.4
2018-01-23T10:13:20.179Z,84.59
2018-01-23T10:14:30.169Z,84.59
2018-01-23T10:15:40.372Z,84.97
2018-01-23T10:16:50.510Z,84.88
2018-01-23T10:18:00.636Z,84.97
2018-01-23T10:19:10.758Z,85.54
2018-01-23T10:20:20.905Z,84.92
2018-01-23T10:21:31.140Z,84.92
2018-01-23T10:22:41.275Z,85.41
2018-01-23T10:23:51.476Z,85.21
2018-01-23T10:25:01.609Z,84.74
2018-01-23T10:26:11.754Z,85.27
2018-01-23T10:27:21.924Z,85.55
2018-01-23T10:28:32.047Z,85.36
2018-01-23T10:29:42.213Z,85.84
2018-01-23T10:30:52.355Z,86.08
2018-01-23T10:32:02.217Z,86.08
2018-01-23T10:33:12.401Z,85.89
2018-01-23T10:34:22.571Z,86.46
2018-01-23T10:35:32.893Z,86.55
2018-01-23T10:36:43.061Z,86.65
2018-01-23T10:37:53.208Z,87.13
2018-01-23T10:39:03.392Z,86.94
2018-01-23T10:40:13.617Z,87.37
2018-01-23T10:41:23.269Z,87.75
2018-01-23T10:42:33.483Z,88.04
2018-01-23T10:43:43.728Z,87.75
2018-01-23T10:44:53.972Z,87.85
2018-01-23T10:46:04.115Z,87.6
2018-01-23T10:47:14.250Z,88.03
2018-01-23T10:48:24.380Z,87.65
2018-01-23T10:49:34.499Z,87.84
2018-01-23T10:50:44.765Z,87.5
2018-01-23T10:51:54.957Z,86.16
2018-01-23T10:53:05.108Z,86.11
2018-01-23T10:54:15.271Z,85.3
2018-01-23T10:55:25.492Z,85.05
2018-01-23T10:56:35.667Z,83.81
2018-01-23T10:57:45.974Z,82.9
2018-01-23T10:58:56.315Z,83.13
2018-01-23T11:00:06.562Z,82.46
2018-01-23T11:01:16.805Z,81.13
2018-01-23T11:02:27.079Z,81.32
2018-01-23T11:03:37.198Z,80.07
2018-01-23T11:04:47.415Z,80.17
2018-01-23T11:05:57.627Z,79.88
2018-01-23T11:07:07.755Z,79.22
2018-01-23T11:08:18.004Z,79.31
2018-01-23T11:09:28.200Z,79.65
2018-01-23T11:10:38.102Z,79.85
2018-01-23T11:11:48.282Z,79.27
2018-01-23T11:12:58.426Z,79.65
2018-01-23T11:14:08.620Z,79.56
2018-01-23T11:15:18.756Z,79.43
2018-01-23T11:16:28.901Z,79.99
2018-01-23T11:17:39.038Z,79.86
2018-01-23T11:18:49.210Z,79.86
2018-01-23T11:19:59.346Z,80.24
2018-01-23T11:21:09.221Z,80.49
2018-01-23T11:22:19.342Z,80.39
2018-01-23T11:23:29.479Z,81.15
2018-01-23T11:24:39.689Z,81.12
2018-01-23T11:25:49.856Z,81.49
2018-01-23T11:27:00.065Z,82.07
2018-01-23T11:28:10.211Z,82.07
2018-01-23T11:29:20.349Z,82.54
2018-01-23T11:30:30.508Z,82.45
2018-01-23T11:31:40.634Z,82.6
2018-01-23T11:32:50.802Z,83.17
2018-01-23T11:34:00.977Z,83.07
2018-01-23T11:35:11.191Z,83.07
2018-01-23T11:36:21.366Z,83.55
2018-01-23T11:37:31.580Z,83.93
2018-01-23T11:38:41.786Z,84.36
2018-01-23T11:39:51.960Z,84.08
2018-01-23T11:41:02.176Z,84.17
2018-01-23T11:42:12.440Z,84.56
2018-01-23T11:43:22.788Z,84.36
2018-01-23T11:44:33.038Z,85.03
2018-01-23T11:45:43.196Z,85.32
2018-01-23T11:46:53.342Z,85.47
2018-01-23T11:48:03.567Z,85.51
2018-01-23T11:49:13.702Z,85.41
2018-01-23T11:50:23.936Z,86.18
2018-01-23T11:51:33.894Z,86.08
2018-01-23T11:52:43.839Z,86.27
2018-01-23T11:53:53.746Z,85.99
2018-01-23T11:55:03.902Z,85.99
2018-01-23T11:56:14.182Z,85.8
2018-01-23T11:57:24.083Z,86.65
2018-01-23T11:58:34.215Z,86.18
2018-01-23T11:59:43.997Z,86.55
2018-01-23T12:00:54.167Z,86.36
2018-01-23T12:02:04.332Z,87.03
2018-01-23T12:03:14.649Z,86.55
2018-01-23T12:04:24.859Z,86.65
2018-01-23T12:05:35.099Z,86.94
2018-01-23T12:06:45.287Z,86.55
2018-01-23T12:07:55.480Z,86.94
2018-01-23T12:09:05.735Z,86.84
2018-01-23T12:10:15.878Z,86.55
2018-01-23T12:11:26.100Z,86.46
2018-01-23T12:12:36.327Z,86.46
2018-01-23T12:13:46.560Z,86.65
2018-01-23T12:14:56.797Z,86.84
2018-01-23T12:16:06.976Z,86.94
2018-01-23T12:17:17.269Z,86.94
2018-01-23T12:18:27.677Z,87.03
2018-01-23T12:19:37.788Z,86.55
2018-01-23T12:20:47.955Z,86.36
2018-01-23T12:21:58.178Z,86.84
2018-01-23T12:23:08.136Z,86.94
2018-01-23T12:24:18.271Z,86.84
2018-01-23T12:25:28.384Z,86.36
2018-01-23T12:26:38.514Z,87.03
2018-01-23T12:27:48.674Z,86.55
2018-01-23T12:28:58.828Z,86.46
2018-01-23T12:30:09.010Z,86.08
2018-01-23T12:31:19.194Z,86.84
2018-01-23T12:32:29.348Z,86.99
2018-01-23T12:33:39.527Z,86.99
2018-01-23T12:34:49.680Z,86.9
2018-01-23T12:35:59.820Z,86.8
2018-01-23T12:37:10.041Z,86.7
2018-01-23T12:38:20.195Z,86.75
2018-01-23T12:39:30.432Z,86.9
2018-01-23T12:40:40.580Z,86.9
2018-01-23T12:41:50.466Z,86.8
2018-01-23T12:43:00.614Z,86.8
2018-01-23T12:44:10.771Z,86.7
2018-01-23T12:45:20.950Z,86.7
2018-01-23T12:46:30.961Z,86.7
2018-01-23T12:47:41.133Z,86.99
2018-01-23T12:48:51.420Z,86.8
2018-01-23T12:50:01.260Z,86.8
2018-01-23T12:51:11.442Z,86.51
2018-01-23T12:52:21.583Z,86.99
2018-01-23T12:53:31.759Z,86.99
2018-01-23T12:54:41.909Z,86.8
2018-01-23T12:55:52.106Z,86.61
2018-01-23T12:57:02.269Z,86.8
2018-01-23T12:58:12.425Z,86.8
2018-01-23T12:59:22.563Z,86.9
2018-01-23T13:00:32.738Z,86.61
2018-01-23T13:01:42.851Z,86.8
2018-01-23T13:02:53.022Z,87.08
2018-01-23T13:04:03.234Z,86.51
2018-01-23T13:05:13.467Z,86.8
2018-01-23T13:06:24.614Z,86.8
2018-01-23T13:07:34.906Z,86.99
2018-01-23T13:08:45.117Z,86.9
2018-01-23T13:09:55.319Z,86.8
2018-01-23T13:11:05.476Z,86.61
2018-01-23T13:12:15.672Z,86.9
2018-01-23T13:13:25.953Z,86.61
2018-01-23T13:14:36.108Z,86.9
2018-01-23T13:15:46.269Z,86.7
2018-01-23T13:16:56.182Z,86.61
2018-01-23T13:18:06.381Z,86.51
2018-01-23T13:19:16.545Z,86.61
2018-01-23T13:20:26.733Z,86.9
2018-01-23T13:21:36.509Z,86.8
2018-01-23T13:22:46.734Z,86.9
2018-01-23T13:23:56.903Z,86.7
2018-01-23T13:25:07.250Z,86.61
2018-01-23T13:26:17.431Z,86.61
2018-01-23T13:27:27.694Z,86.61
2018-01-23T13:28:37.838Z,86.61
2018-01-23T13:29:47.977Z,86.7
2018-01-23T13:30:58.200Z,86.9
2018-01-23T13:32:08.464Z,86.61
2018-01-23T13:33:18.699Z,86.8
2018-01-23T13:34:28.847Z,86.9
2018-01-23T13:35:38.998Z,86.7
2018-01-23T13:36:49.160Z,86.7
2018-01-23T13:37:59.297Z,86.99
2018-01-23T13:39:09.440Z,86.99
2018-01-23T13:40:19.610Z,86.8
2018-01-23T13:41:29.749Z,86.9
2018-01-23T13:42:40.035Z,86.8
2018-01-23T13:43:50.236Z,86.9
2018-01-23T13:45:00.402Z,86.7
2018-01-23T13:46:10.634Z,86.7
2018-01-23T13:47:20.862Z,86.7
2018-01-23T13:48:30.997Z,86.61
2018-01-23T13:49:40.890Z,87.08
2018-01-23T13:50:51.102Z,86.99
2018-01-23T13:52:00.989Z,87.08
2018-01-23T13:53:11.247Z,86.7
2018-01-23T13:54:21.406Z,87.08
2018-01-23T13:55:31.533Z,86.9
2018-01-23T13:56:41.738Z,87.18
2018-01-23T13:57:51.921Z,87.18
2018-01-23T13:59:02.183Z,86.9
2018-01-23T14:00:12.051Z,86.8
2018-01-23T14:01:21.930Z,86.7
2018-01-23T14:02:32.219Z,86.8
2018-01-23T14:03:42.574Z,86.9
2018-01-23T14:04:52.843Z,86.66
2018-01-23T14:06:03.025Z,86.99
2018-01-23T14:07:13.274Z,86.7
2018-01-23T14:08:24.471Z,86.38
2018-01-23T14:09:35.624Z,86.28
2018-01-23T14:10:46.880Z,85.9
2018-01-23T14:11:57.174Z,85.9
2018-01-23T14:13:07.389Z,85.75
2018-01-23T14:14:17.583Z,85.85
2018-01-23T14:15:27.850Z,85.66
2018-01-23T14:16:38.010Z,85.37
2018-01-23T14:17:48.156Z,85.18
2018-01-23T14:18:58.283Z,85.18
2018-01-23T14:20:09.471Z,85.28
2018-01-23T14:21:19.656Z,84.8
2018-01-23T14:22:29.825Z,84.95
2018-01-23T14:23:40.049Z,84.89
2018-01-23T14:24:50.230Z,84.99
2018-01-23T14:26:00.364Z,84.85
2018-01-23T14:27:10.535Z,84.61
2018-01-23T14:28:20.427Z,84.13
2018-01-23T14:29:30.615Z,84.33
2018-01-23T14:30:40.752Z,84.23
2018-01-23T14:31:50.917Z,84
2018-01-23T14:33:01.126Z,84.04
2018-01-23T14:34:11.016Z,84.33
2018-01-23T14:35:21.230Z,84.13
2018-01-23T14:36:31.355Z,83.85
2018-01-23T14:37:41.491Z,84.52
2018-01-23T14:38:51.672Z,84.38
2018-01-23T14:40:01.822Z,84.09
2018-01-23T14:41:11.970Z,84.38
2018-01-23T14:42:22.363Z,84.38
2018-01-23T14:43:32.540Z,84.42
2018-01-23T14:44:42.725Z,84.09
2018-01-23T14:45:52.933Z,84.04
2018-01-23T14:47:03.082Z,83.94
2018-01-23T14:48:13.245Z,84.19
2018-01-23T14:49:23.410Z,84.09
2018-01-23T14:50:33.572Z,84.28
2018-01-23T14:51:43.707Z,84.28
2018-01-23T14:52:53.877Z,84.19
2018-01-23T14:54:04.035Z,84.66
2018-01-23T14:55:13.930Z,84.56
2018-01-23T14:56:24.122Z,84.66
2018-01-23T14:57:34.256Z,84.56
2018-01-23T14:58:44.498Z,85.04
2018-01-23T14:59:54.714Z,84.85
2018-01-23T15:01:04.896Z,85.04
2018-01-23T15:02:15.084Z,85.14
2018-01-23T15:03:24.957Z,84.95
2018-01-23T15:04:35.125Z,85.14
2018-01-23T15:05:45.407Z,85.33
2018-01-23T15:06:55.665Z,85.04
2018-01-23T15:08:05.845Z,84.85
2018-01-23T15:09:16.064Z,84.95